Time;durP1;ratioP1;P1;durP2;ratioP2;P2;SDS_P1;SDS_P2;PMS_P1;PMS_P2;Temp;Humidity;BMP_temperature;BMP_pressure;BME280_temperature;BME280_humidity;BME280_pressure;Samples;Min_cycle;Max_cycle;Signal;HPM_P1;HPM_P2
2022/01/01 00:02:53;;;;;;;;;;;12.00;99.90;;;;;;8402341;28;19979;-71
2022/01/01 00:06:55;;;;;;;;;;;12.00;99.90;;;;;;8397782;28;20027;-71
2022/01/01 00:10:56;;;;;;;;;;;12.00;99.90;;;;;;8410896;28;19971;-71
2022/01/01 00:15:16;;;;;;;;;;;12.00;99.90;;;;;;8398123;28;19937;-71
2022/01/01 00:19:18;;;;;;;;;;;12.00;99.90;;;;;;8409067;28;19924;-71
2022/01/01 00:23:19;;;;;;;;;;;12.00;99.90;;;;;;8413693;28;19928;-71
2022/01/01 00:27:21;;;;;;;;;;;12.00;99.90;;;;;;8422767;28;20378;-72
2022/01/01 00:31:23;;;;;;;;;;;12.00;99.90;;;;;;8415915;28;20343;-72
2022/01/01 00:35:24;;;;;;;;;;;12.00;99.90;;;;;;8411056;28;20531;-72
2022/01/01 00:39:26;;;;;;;;;;;12.00;99.90;;;;;;8413441;28;19932;-72
2022/01/01 00:43:28;;;;;;;;;;;11.90;99.90;;;;;;8420437;28;19970;-71
2022/01/01 00:47:29;;;;;;;;;;;11.90;99.90;;;;;;8405789;28;19924;-72
2022/01/01 00:51:31;;;;;;;;;;;11.90;99.90;;;;;;8413807;28;19923;-71
2022/01/01 00:55:33;;;;;;;;;;;11.90;99.90;;;;;;8419623;28;19968;-72
2022/01/01 00:59:35;;;;;;;;;;;11.90;99.90;;;;;;8389159;28;19929;-71
2022/01/01 01:03:36;;;;;;;;;;;11.80;99.90;;;;;;8402691;28;19963;-71
2022/01/01 01:07:38;;;;;;;;;;;11.80;99.90;;;;;;8406449;28;19931;-71
2022/01/01 01:11:46;;;;;;;;;;;11.90;99.90;;;;;;8403907;28;19931;-71
2022/01/01 01:15:48;;;;;;;;;;;11.90;99.90;;;;;;8406474;28;19932;-72
2022/01/01 01:19:49;;;;;;;;;;;11.80;99.90;;;;;;8395475;28;20366;-71
2022/01/01 01:23:51;;;;;;;;;;;11.80;99.90;;;;;;8396288;28;19971;-71
2022/01/01 01:27:53;;;;;;;;;;;11.80;99.90;;;;;;8400992;28;19931;-72
2022/01/01 01:31:55;;;;;;;;;;;11.80;99.90;;;;;;8409172;28;19928;-71
2022/01/01 01:35:56;;;;;;;;;;;11.80;99.90;;;;;;8400883;28;19924;-72
2022/01/01 01:39:58;;;;;;;;;;;11.80;99.90;;;;;;8398562;28;20382;-71
2022/01/01 01:44:02;;;;;;;;;;;11.90;99.90;;;;;;8365878;28;19948;-72
2022/01/01 01:48:04;;;;;;;;;;;11.90;99.90;;;;;;8362966;28;20296;-71
2022/01/01 01:52:06;;;;;;;;;;;11.90;99.90;;;;;;8372366;28;20411;-71
2022/01/01 01:56:08;;;;;;;;;;;11.90;99.90;;;;;;8389227;28;21815;-72
2022/01/01 02:00:29;;;;;;;;;;;11.90;99.90;;;;;;8362913;28;19998;-71
2022/01/01 02:04:32;;;;;;;;;;;12.00;99.90;;;;;;8373447;28;20316;-71
2022/01/01 02:08:33;;;;;;;;;;;12.00;99.90;;;;;;8374791;28;19939;-71
2022/01/01 02:12:35;;;;;;;;;;;12.10;99.90;;;;;;8389245;28;19932;-72
2022/01/01 02:16:52;;;;;;;;;;;12.10;99.90;;;;;;8345981;28;20072;-72
2022/01/01 02:20:55;;;;;;;;;;;12.10;99.90;;;;;;8372288;28;19935;-71
2022/01/01 02:24:57;;;;;;;;;;;12.10;99.90;;;;;;8366457;28;20388;-71
2022/01/01 02:28:59;;;;;;;;;;;12.20;99.90;;;;;;8386980;28;19929;-71
2022/01/01 02:33:01;;;;;;;;;;;12.20;99.90;;;;;;8394999;28;20317;-71
2022/01/01 02:37:03;;;;;;;;;;;12.20;99.90;;;;;;8413246;28;19924;-71
2022/01/01 02:41:04;;;;;;;;;;;12.30;99.90;;;;;;8384941;28;19964;-71
2022/01/01 02:45:08;;;;;;;;;;;12.30;99.90;;;;;;8404876;28;19924;-71
2022/01/01 02:49:10;;;;;;;;;;;12.30;99.90;;;;;;8412829;28;19925;-71
2022/01/01 02:53:15;;;;;;;;;;;12.30;99.90;;;;;;8405533;28;20379;-72
2022/01/01 02:57:17;;;;;;;;;;;12.30;99.90;;;;;;8416596;28;19925;-71
2022/01/01 03:01:19;;;;;;;;;;;12.30;99.90;;;;;;8411581;28;20294;-71
2022/01/01 03:05:20;;;;;;;;;;;12.30;99.90;;;;;;8386871;28;19928;-71
2022/01/01 03:09:23;;;;;;;;;;;12.30;99.90;;;;;;8406244;28;20053;-71
2022/01/01 03:13:25;;;;;;;;;;;12.30;99.90;;;;;;8416611;28;19967;-71
2022/01/01 03:17:27;;;;;;;;;;;12.20;99.90;;;;;;8396188;28;20422;-71
2022/01/01 03:21:28;;;;;;;;;;;12.30;99.90;;;;;;8396289;28;19960;-71
2022/01/01 03:25:30;;;;;;;;;;;12.30;99.90;;;;;;8402020;28;19959;-71
2022/01/01 03:29:32;;;;;;;;;;;12.30;99.90;;;;;;8411946;28;20593;-71
2022/01/01 03:33:34;;;;;;;;;;;12.30;99.90;;;;;;8409931;28;19971;-72
2022/01/01 03:37:36;;;;;;;;;;;12.30;99.90;;;;;;8408361;28;19939;-72
2022/01/01 03:41:37;;;;;;;;;;;12.30;99.90;;;;;;8421167;28;19924;-71
2022/01/01 03:45:39;;;;;;;;;;;12.30;99.90;;;;;;8401413;28;19928;-72
2022/01/01 03:49:41;;;;;;;;;;;12.30;99.90;;;;;;8408161;28;20391;-71
2022/01/01 03:53:42;;;;;;;;;;;12.30;99.90;;;;;;8396889;28;19972;-71
2022/01/01 03:57:44;;;;;;;;;;;12.30;99.90;;;;;;8403317;28;19968;-71
2022/01/01 04:01:46;;;;;;;;;;;12.30;99.90;;;;;;8397275;28;19936;-72
2022/01/01 04:05:48;;;;;;;;;;;12.30;99.90;;;;;;8393344;28;20268;-71
2022/01/01 04:09:49;;;;;;;;;;;12.30;99.90;;;;;;8388609;28;19925;-72
2022/01/01 04:13:51;;;;;;;;;;;12.40;99.90;;;;;;8392920;28;19971;-71
2022/01/01 04:17:58;;;;;;;;;;;12.30;99.90;;;;;;8412933;28;19924;-72
2022/01/01 04:21:59;;;;;;;;;;;12.30;99.90;;;;;;8387279;28;19940;-71
2022/01/01 04:26:01;;;;;;;;;;;12.30;99.90;;;;;;8391435;28;19974;-71
2022/01/01 04:30:03;;;;;;;;;;;12.40;99.90;;;;;;8407135;28;20396;-71
2022/01/01 04:34:05;;;;;;;;;;;12.40;99.90;;;;;;8380377;28;19951;-72
2022/01/01 04:38:14;;;;;;;;;;;12.40;99.90;;;;;;8392066;28;19943;-71
2022/01/01 04:42:15;;;;;;;;;;;12.40;99.90;;;;;;8395401;28;20280;-72
2022/01/01 04:46:17;;;;;;;;;;;12.40;99.90;;;;;;8416563;28;20371;-71
2022/01/01 04:50:19;;;;;;;;;;;12.40;99.90;;;;;;8398168;28;20380;-71
2022/01/01 04:54:20;;;;;;;;;;;12.40;99.90;;;;;;8415806;28;19971;-72
2022/01/01 04:58:22;;;;;;;;;;;12.40;99.90;;;;;;8411832;28;19963;-72
2022/01/01 05:02:25;;;;;;;;;;;12.30;99.90;;;;;;8416572;28;20158;-71
2022/01/01 05:06:26;;;;;;;;;;;12.30;99.90;;;;;;8403679;28;19928;-71
2022/01/01 05:10:28;;;;;;;;;;;12.30;99.90;;;;;;8413023;28;20367;-71
2022/01/01 05:14:31;;;;;;;;;;;12.30;99.90;;;;;;8409061;28;20018;-71
2022/01/01 05:18:36;;;;;;;;;;;12.30;99.90;;;;;;8396160;28;19991;-72
2022/01/01 05:22:38;;;;;;;;;;;12.30;99.90;;;;;;8386829;28;19972;-71
2022/01/01 05:26:39;;;;;;;;;;;12.30;99.90;;;;;;8385862;28;20468;-71
2022/01/01 05:30:41;;;;;;;;;;;12.30;99.90;;;;;;8412856;28;19943;-72
2022/01/01 05:34:42;;;;;;;;;;;12.30;99.90;;;;;;8413158;28;19924;-71
2022/01/01 05:38:45;;;;;;;;;;;12.30;99.90;;;;;;8408509;28;19942;-71
2022/01/01 05:42:47;;;;;;;;;;;12.30;99.90;;;;;;8404496;28;19979;-71
2022/01/01 05:46:50;;;;;;;;;;;12.20;99.90;;;;;;8395618;28;19925;-71
2022/01/01 05:50:51;;;;;;;;;;;12.20;99.90;;;;;;8407527;28;20378;-71
2022/01/01 05:54:53;;;;;;;;;;;12.20;99.90;;;;;;8410284;28;19979;-71
2022/01/01 05:58:55;;;;;;;;;;;12.20;99.90;;;;;;8414949;28;21147;-71
2022/01/01 06:02:57;;;;;;;;;;;12.20;99.90;;;;;;8387262;28;20026;-71
2022/01/01 06:06:59;;;;;;;;;;;12.10;99.90;;;;;;8398322;28;20383;-71
2022/01/01 06:11:01;;;;;;;;;;;12.10;99.90;;;;;;8396872;28;19924;-71
2022/01/01 06:15:03;;;;;;;;;;;12.00;99.90;;;;;;8416678;28;20387;-71
2022/01/01 06:19:04;;;;;;;;;;;12.00;99.90;;;;;;8408559;28;19924;-71
2022/01/01 06:23:06;;;;;;;;;;;11.90;99.90;;;;;;8417466;28;20618;-72
2022/01/01 06:27:08;;;;;;;;;;;11.90;99.90;;;;;;8421429;28;19931;-71
2022/01/01 06:31:10;;;;;;;;;;;11.90;99.90;;;;;;8417331;28;19976;-71
2022/01/01 06:35:11;;;;;;;;;;;11.90;99.90;;;;;;8410512;28;19999;-71
2022/01/01 06:39:13;;;;;;;;;;;11.80;99.90;;;;;;8420890;28;20402;-71
2022/01/01 06:43:16;;;;;;;;;;;11.80;99.90;;;;;;8412295;28;20031;-71
2022/01/01 06:47:17;;;;;;;;;;;11.80;99.90;;;;;;8402309;28;20023;-71
2022/01/01 06:51:19;;;;;;;;;;;11.80;99.90;;;;;;8414947;28;19924;-72
2022/01/01 06:55:20;;;;;;;;;;;11.80;99.90;;;;;;8414309;28;19956;-71
2022/01/01 06:59:22;;;;;;;;;;;11.90;99.90;;;;;;8399660;28;20284;-71
2022/01/01 07:03:24;;;;;;;;;;;11.90;99.90;;;;;;8398396;28;19931;-71
2022/01/01 07:07:25;;;;;;;;;;;11.90;99.90;;;;;;8400255;28;19928;-71
2022/01/01 07:11:27;;;;;;;;;;;11.90;99.90;;;;;;8400242;28;20375;-71
2022/01/01 07:15:29;;;;;;;;;;;11.90;99.90;;;;;;8416194;28;19924;-71
2022/01/01 07:19:30;;;;;;;;;;;11.90;99.90;;;;;;8425706;28;20406;-72
2022/01/01 07:23:32;;;;;;;;;;;11.90;99.90;;;;;;8407027;28;19924;-71
2022/01/01 07:27:33;;;;;;;;;;;12.00;99.90;;;;;;8402370;28;20317;-71
2022/01/01 07:31:35;;;;;;;;;;;12.00;99.90;;;;;;8417373;28;19925;-71
2022/01/01 07:35:37;;;;;;;;;;;12.00;99.90;;;;;;8419775;28;19932;-71
2022/01/01 07:39:39;;;;;;;;;;;12.10;99.90;;;;;;8386871;28;20035;-71
2022/01/01 07:43:41;;;;;;;;;;;12.10;99.90;;;;;;8400949;28;19986;-71
2022/01/01 07:47:42;;;;;;;;;;;12.10;99.90;;;;;;8386162;28;20189;-71
2022/01/01 07:51:44;;;;;;;;;;;12.10;99.90;;;;;;8402166;28;19971;-71
2022/01/01 07:55:46;;;;;;;;;;;12.20;99.90;;;;;;8383301;28;19925;-71
2022/01/01 07:59:47;;;;;;;;;;;12.20;99.90;;;;;;8386830;28;19928;-71
2022/01/01 08:03:49;;;;;;;;;;;12.20;99.90;;;;;;8384757;28;19982;-71
2022/01/01 08:07:51;;;;;;;;;;;12.20;99.90;;;;;;8363141;28;19939;-72
2022/01/01 08:12:03;;;;;;;;;;;12.20;99.90;;;;;;8346489;28;21406;-71
2022/01/01 08:16:05;;;;;;;;;;;12.30;99.90;;;;;;8379017;28;19985;-71
2022/01/01 08:20:07;;;;;;;;;;;12.30;99.90;;;;;;8386155;28;20018;-71
2022/01/01 08:24:09;;;;;;;;;;;12.30;99.90;;;;;;8385596;28;19963;-72
2022/01/01 08:28:11;;;;;;;;;;;12.40;99.90;;;;;;8387852;28;19928;-71
2022/01/01 08:32:12;;;;;;;;;;;12.40;99.90;;;;;;8393074;28;19924;-71
2022/01/01 08:36:14;;;;;;;;;;;12.40;99.90;;;;;;8370446;28;19970;-71
2022/01/01 08:40:16;;;;;;;;;;;12.40;99.90;;;;;;8389387;28;19940;-71
2022/01/01 08:44:17;;;;;;;;;;;12.40;99.90;;;;;;8393829;28;19971;-71
2022/01/01 08:48:19;;;;;;;;;;;12.40;99.90;;;;;;8393656;28;20283;-71
2022/01/01 08:52:22;;;;;;;;;;;12.50;99.90;;;;;;8385691;28;20016;-71
2022/01/01 08:56:24;;;;;;;;;;;12.50;99.90;;;;;;8382438;28;19932;-71
2022/01/01 09:00:25;;;;;;;;;;;12.50;99.90;;;;;;8375307;28;20363;-72
2022/01/01 09:04:27;;;;;;;;;;;12.50;99.90;;;;;;8383736;28;19932;-71
2022/01/01 09:08:30;;;;;;;;;;;12.50;99.90;;;;;;8389586;28;20940;-71
2022/01/01 09:12:32;;;;;;;;;;;12.50;99.90;;;;;;8401843;28;19979;-71
2022/01/01 09:16:33;;;;;;;;;;;12.50;99.90;;;;;;8388792;28;20387;-71
2022/01/01 09:20:35;;;;;;;;;;;12.60;99.90;;;;;;8380703;28;19947;-71
2022/01/01 09:24:37;;;;;;;;;;;12.60;99.90;;;;;;8376036;28;19987;-71
2022/01/01 09:28:38;;;;;;;;;;;12.60;99.90;;;;;;8383608;28;19935;-71
2022/01/01 09:32:40;;;;;;;;;;;12.60;99.90;;;;;;8387728;28;20387;-71
2022/01/01 09:36:42;;;;;;;;;;;12.60;99.90;;;;;;8388098;28;20027;-71
2022/01/01 09:40:43;;;;;;;;;;;12.60;99.90;;;;;;8394257;28;20035;-71
2022/01/01 09:44:45;;;;;;;;;;;12.60;99.90;;;;;;8390198;28;20023;-71
2022/01/01 09:48:47;;;;;;;;;;;12.70;99.90;;;;;;8386345;28;20404;-71
2022/01/01 09:52:48;;;;;;;;;;;12.70;99.90;;;;;;8384936;28;19974;-71
2022/01/01 09:56:50;;;;;;;;;;;12.70;99.90;;;;;;8388477;28;19931;-71
2022/01/01 10:00:52;;;;;;;;;;;12.70;99.90;;;;;;8386182;28;20675;-71
2022/01/01 10:04:54;;;;;;;;;;;12.80;99.90;;;;;;8368543;28;19925;-71
2022/01/01 10:09:03;;;;;;;;;;;12.80;99.90;;;;;;8382195;28;19971;-71
2022/01/01 10:13:11;;;;;;;;;;;12.90;99.90;;;;;;8386904;28;20045;-71
2022/01/01 10:17:14;;;;;;;;;;;12.90;99.90;;;;;;8388948;28;20022;-71
2022/01/01 10:21:20;;;;;;;;;;;13.10;99.90;;;;;;8371719;28;19979;-71
2022/01/01 10:29:41;;;;;;;;;;;13.30;99.90;;;;;;8386244;28;19936;-71
2022/01/01 10:33:46;;;;;;;;;;;13.30;99.90;;;;;;8390704;28;19924;-71
2022/01/01 10:37:48;;;;;;;;;;;13.40;99.90;;;;;;8383433;28;19976;-71
2022/01/01 10:41:58;;;;;;;;;;;13.40;99.90;;;;;;8390233;28;19931;-71
2022/01/01 10:46:02;;;;;;;;;;;13.40;99.90;;;;;;8388611;28;19931;-72
2022/01/01 10:54:24;;;;;;;;;;;13.40;99.90;;;;;;8389992;28;19937;-71
2022/01/01 10:58:27;;;;;;;;;;;13.40;99.90;;;;;;8390349;28;19935;-71
2022/01/01 11:02:31;;;;;;;;;;;13.40;99.90;;;;;;8394077;28;20398;-72
2022/01/01 11:06:33;;;;;;;;;;;13.40;99.90;;;;;;8400705;28;19928;-71
2022/01/01 11:10:36;;;;;;;;;;;13.50;99.90;;;;;;8371708;28;20406;-71
2022/01/01 11:14:38;;;;;;;;;;;13.70;99.90;;;;;;8402433;28;24181;-71
2022/01/01 11:18:39;;;;;;;;;;;14.20;99.90;;;;;;8388368;28;20372;-71
2022/01/01 11:22:41;;;;;;;;;;;14.90;99.90;;;;;;8388345;28;20028;-71
2022/01/01 11:26:44;;;;;;;;;;;15.50;99.90;;;;;;8389062;28;19920;-71
2022/01/01 11:30:57;;;;;;;;;;;15.80;99.90;;;;;;8393342;28;19971;-72
2022/01/01 11:34:59;;;;;;;;;;;15.70;99.90;;;;;;8385980;28;19928;-71
2022/01/01 11:39:11;;;;;;;;;;;15.30;99.90;;;;;;8388768;28;19959;-71
2022/01/01 11:43:31;;;;;;;;;;;14.90;99.90;;;;;;8388925;28;19924;-71
2022/01/01 11:47:36;;;;;;;;;;;14.70;99.90;;;;;;8387217;28;20359;-71
2022/01/01 11:51:58;;;;;;;;;;;14.50;99.90;;;;;;8402029;28;20364;-71
2022/01/01 11:56:17;;;;;;;;;;;14.40;99.90;;;;;;8389267;28;19963;-72
2022/01/01 12:00:21;;;;;;;;;;;14.30;99.90;;;;;;8368564;28;19978;-71
2022/01/01 12:04:24;;;;;;;;;;;14.40;99.90;;;;;;8382923;28;19931;-71
2022/01/01 12:08:42;;;;;;;;;;;14.70;99.90;;;;;;8387864;28;19998;-71
2022/01/01 12:12:53;;;;;;;;;;;14.70;99.90;;;;;;8385996;28;19920;-71
2022/01/01 12:16:55;;;;;;;;;;;14.70;99.90;;;;;;8389438;28;19931;-71
2022/01/01 12:21:01;;;;;;;;;;;14.70;99.90;;;;;;8391545;28;19970;-71
2022/01/01 12:25:03;;;;;;;;;;;14.60;99.90;;;;;;8389495;28;19948;-71
2022/01/01 12:29:09;;;;;;;;;;;14.50;99.90;;;;;;8390655;28;19948;-71
2022/01/01 12:33:12;;;;;;;;;;;14.60;99.90;;;;;;8389288;28;20516;-71
2022/01/01 12:37:13;;;;;;;;;;;14.70;99.90;;;;;;8390932;28;19920;-72
2022/01/01 12:41:16;;;;;;;;;;;14.80;99.90;;;;;;8391372;28;19987;-71
2022/01/01 12:45:18;;;;;;;;;;;15.00;99.90;;;;;;8390878;28;19971;-71
2022/01/01 12:49:20;;;;;;;;;;;15.20;99.90;;;;;;8374725;28;19938;-72
2022/01/01 12:53:23;;;;;;;;;;;15.10;99.90;;;;;;8392488;28;20011;-71
2022/01/01 12:57:25;;;;;;;;;;;15.00;99.90;;;;;;8391125;28;20011;-71
2022/01/01 13:01:30;;;;;;;;;;;15.00;99.90;;;;;;8391254;28;20042;-71
2022/01/01 13:05:38;;;;;;;;;;;15.00;99.90;;;;;;8392780;28;19979;-71
2022/01/01 13:09:39;;;;;;;;;;;14.90;99.90;;;;;;8393665;28;20268;-72
2022/01/01 13:13:44;;;;;;;;;;;14.70;99.90;;;;;;8393097;28;19931;-71
2022/01/01 13:17:47;;;;;;;;;;;14.70;99.90;;;;;;8389193;28;20063;-71
2022/01/01 13:21:50;;;;;;;;;;;14.70;99.90;;;;;;8391628;28;19928;-71
2022/01/01 13:25:52;;;;;;;;;;;14.70;99.90;;;;;;8381707;28;19983;-71
2022/01/01 13:29:54;;;;;;;;;;;14.70;99.90;;;;;;8376237;28;19966;-71
2022/01/01 13:33:56;;;;;;;;;;;14.60;99.90;;;;;;8386453;28;19947;-71
2022/01/01 13:37:58;;;;;;;;;;;14.50;99.90;;;;;;8388926;28;19924;-72
2022/01/01 13:42:00;;;;;;;;;;;14.50;99.90;;;;;;8383506;28;19956;-71
2022/01/01 13:46:12;;;;;;;;;;;14.40;99.90;;;;;;8371566;28;19967;-71
2022/01/01 13:50:20;;;;;;;;;;;14.40;99.90;;;;;;8391529;28;19924;-71
2022/01/01 13:54:22;;;;;;;;;;;14.40;99.90;;;;;;8392216;28;19928;-71
2022/01/01 13:58:25;;;;;;;;;;;14.40;99.90;;;;;;8391949;28;19924;-71
2022/01/01 14:02:27;;;;;;;;;;;14.40;99.90;;;;;;8388319;28;20413;-71
2022/01/01 14:06:29;;;;;;;;;;;14.40;99.90;;;;;;8380832;28;19931;-71
2022/01/01 14:10:31;;;;;;;;;;;14.40;99.90;;;;;;8391382;28;19939;-71
2022/01/01 14:14:33;;;;;;;;;;;14.30;99.90;;;;;;8387889;28;19931;-71
2022/01/01 14:18:36;;;;;;;;;;;14.30;99.90;;;;;;8388900;28;20007;-71
2022/01/01 14:22:40;;;;;;;;;;;14.20;99.90;;;;;;8371286;28;19935;-71
2022/01/01 14:26:46;;;;;;;;;;;14.10;99.90;;;;;;8375248;28;19939;-72
2022/01/01 14:30:49;;;;;;;;;;;14.10;99.90;;;;;;8396449;28;19921;-71
2022/01/01 14:34:50;;;;;;;;;;;14.00;99.90;;;;;;8392291;28;19920;-72
2022/01/01 14:38:52;;;;;;;;;;;14.00;99.90;;;;;;8376035;28;19960;-71
2022/01/01 14:42:54;;;;;;;;;;;13.90;99.90;;;;;;8401338;28;19994;-71
2022/01/01 14:46:59;;;;;;;;;;;13.90;99.90;;;;;;8384999;28;19965;-72
2022/01/01 14:51:06;;;;;;;;;;;13.80;99.90;;;;;;8403882;28;19942;-71
2022/01/01 14:55:09;;;;;;;;;;;13.80;99.90;;;;;;8374096;28;19921;-71
2022/01/01 14:59:14;;;;;;;;;;;13.70;99.90;;;;;;8395823;28;19927;-71
2022/01/01 15:03:15;;;;;;;;;;;13.70;99.90;;;;;;8390933;28;19921;-71
2022/01/01 15:07:18;;;;;;;;;;;13.60;99.90;;;;;;8391538;28;19988;-71
2022/01/01 15:11:20;;;;;;;;;;;13.60;99.90;;;;;;8374552;28;19920;-71
2022/01/01 15:15:22;;;;;;;;;;;13.50;99.90;;;;;;8391026;28;22531;-71
2022/01/01 15:19:24;;;;;;;;;;;13.50;99.90;;;;;;8394727;28;20372;-71
2022/01/01 15:23:31;;;;;;;;;;;13.50;99.90;;;;;;8398249;28;20328;-71
2022/01/01 15:27:33;;;;;;;;;;;13.50;99.90;;;;;;8407974;28;19993;-72
2022/01/01 15:33:11;;;;;;;;;;;13.50;99.90;;;;;;8393042;28;19928;-71
2022/01/01 15:36:15;;;;;;;;;;;13.50;99.90;;;;;;8391591;28;19963;-71
2022/01/01 15:40:19;;;;;;;;;;;13.40;99.90;;;;;;8393026;28;19927;-71
2022/01/01 15:44:22;;;;;;;;;;;13.40;99.90;;;;;;8390732;28;19960;-71
2022/01/01 15:48:24;;;;;;;;;;;13.40;99.90;;;;;;8378674;28;20696;-72
2022/01/01 15:52:26;;;;;;;;;;;13.30;99.90;;;;;;8384909;28;20007;-71
2022/01/01 15:56:36;;;;;;;;;;;13.30;99.90;;;;;;8405534;28;20303;-71
2022/01/01 16:00:40;;;;;;;;;;;13.30;99.90;;;;;;8406214;28;19920;-71
2022/01/01 16:04:45;;;;;;;;;;;13.20;99.90;;;;;;8380685;28;20395;-71
2022/01/01 16:08:53;;;;;;;;;;;13.20;99.90;;;;;;8389258;28;20360;-71
2022/01/01 16:12:54;;;;;;;;;;;13.20;99.90;;;;;;8387693;28;19921;-71
2022/01/01 16:16:56;;;;;;;;;;;13.10;99.90;;;;;;8390151;28;19921;-72
2022/01/01 16:20:58;;;;;;;;;;;13.10;99.90;;;;;;8392106;28;19921;-72
2022/01/01 16:25:00;;;;;;;;;;;13.10;99.90;;;;;;8390525;28;19927;-71
2022/01/01 16:29:02;;;;;;;;;;;13.10;99.90;;;;;;8398504;28;20401;-72
2022/01/01 16:33:04;;;;;;;;;;;13.10;99.90;;;;;;8402902;28;20908;-71
2022/01/01 16:37:07;;;;;;;;;;;13.10;99.90;;;;;;8387878;28;19925;-72
2022/01/01 16:41:19;;;;;;;;;;;13.10;99.90;;;;;;8390882;28;19928;-71
2022/01/01 16:45:23;;;;;;;;;;;13.10;99.90;;;;;;8397968;28;20360;-72
2022/01/01 16:49:29;;;;;;;;;;;13.10;99.90;;;;;;8392647;28;20271;-72
2022/01/01 16:53:40;;;;;;;;;;;13.10;99.90;;;;;;8389663;28;19920;-72
2022/01/01 16:57:42;;;;;;;;;;;13.00;99.90;;;;;;8382376;28;19964;-71
2022/01/01 17:01:45;;;;;;;;;;;13.00;99.90;;;;;;8390348;28;19920;-71
2022/01/01 17:05:47;;;;;;;;;;;13.00;99.90;;;;;;8382839;28;20466;-71
2022/01/01 17:09:49;;;;;;;;;;;13.00;99.90;;;;;;8396449;28;20675;-71
2022/01/01 17:13:51;;;;;;;;;;;13.00;99.90;;;;;;8392402;28;20281;-72
2022/01/01 17:18:01;;;;;;;;;;;13.00;99.90;;;;;;8383072;28;19920;-72
2022/01/01 17:22:21;;;;;;;;;;;13.00;99.90;;;;;;8400457;28;19963;-72
2022/01/01 17:26:23;;;;;;;;;;;13.00;99.90;;;;;;8394748;28;20440;-72
2022/01/01 17:30:27;;;;;;;;;;;13.00;99.90;;;;;;8392739;28;19954;-71
2022/01/01 17:34:54;;;;;;;;;;;12.90;99.90;;;;;;8388810;28;19973;-71
2022/01/01 17:43:18;;;;;;;;;;;12.90;99.90;;;;;;8400057;28;19935;-71
2022/01/01 17:47:20;;;;;;;;;;;12.90;99.90;;;;;;8397368;28;19924;-71
2022/01/01 17:51:25;;;;;;;;;;;12.90;99.90;;;;;;8401487;28;20320;-72
2022/01/01 17:55:27;;;;;;;;;;;12.90;99.90;;;;;;8400205;28;20291;-72
2022/01/01 17:59:29;;;;;;;;;;;12.90;99.90;;;;;;8402677;28;19920;-71
2022/01/01 18:03:33;;;;;;;;;;;12.90;99.90;;;;;;8396508;28;19939;-71
2022/01/01 18:07:39;;;;;;;;;;;12.80;99.90;;;;;;8382866;28;20114;-72
2022/01/01 18:11:47;;;;;;;;;;;12.90;99.90;;;;;;8395155;28;19924;-71
2022/01/01 18:15:50;;;;;;;;;;;12.90;99.90;;;;;;8392822;28;19956;-72
2022/01/01 18:19:52;;;;;;;;;;;12.90;99.90;;;;;;8398270;28;20011;-71
2022/01/01 18:24:10;;;;;;;;;;;12.80;99.90;;;;;;8393179;28;19920;-71
2022/01/01 18:28:20;;;;;;;;;;;12.90;99.90;;;;;;8414136;28;20415;-71
2022/01/01 18:32:22;;;;;;;;;;;12.90;99.90;;;;;;8409605;28;19924;-72
2022/01/01 18:36:25;;;;;;;;;;;12.90;99.90;;;;;;8385021;28;19924;-71
2022/01/01 18:40:26;;;;;;;;;;;12.90;99.90;;;;;;8393704;28;19978;-71
2022/01/01 18:44:28;;;;;;;;;;;12.90;99.90;;;;;;8397903;28;20349;-71
2022/01/01 18:48:30;;;;;;;;;;;12.90;99.90;;;;;;8405029;28;19943;-71
2022/01/01 18:52:43;;;;;;;;;;;12.90;99.90;;;;;;8409642;28;20228;-71
2022/01/01 18:56:50;;;;;;;;;;;12.90;99.90;;;;;;8385576;28;19979;-72
2022/01/01 19:00:52;;;;;;;;;;;12.90;99.90;;;;;;8412422;28;19927;-71
2022/01/01 19:04:57;;;;;;;;;;;12.90;99.90;;;;;;8400645;28;19920;-71
2022/01/01 19:08:59;;;;;;;;;;;12.90;99.90;;;;;;8395511;28;19996;-71
2022/01/01 19:13:05;;;;;;;;;;;12.90;99.90;;;;;;8374873;28;19920;-71
2022/01/01 19:17:10;;;;;;;;;;;12.90;99.90;;;;;;8395072;28;19924;-71
2022/01/01 19:21:12;;;;;;;;;;;12.80;99.90;;;;;;8397274;28;20028;-71
2022/01/01 19:25:17;;;;;;;;;;;12.80;99.90;;;;;;8392361;28;19969;-72
2022/01/01 19:29:22;;;;;;;;;;;12.80;99.90;;;;;;8385411;28;19932;-71
2022/01/01 19:33:25;;;;;;;;;;;12.80;99.90;;;;;;8394555;28;20371;-71
2022/01/01 19:37:27;;;;;;;;;;;12.80;99.90;;;;;;8374042;28;19928;-72
2022/01/01 19:41:31;;;;;;;;;;;12.80;99.90;;;;;;8375212;28;20592;-71
2022/01/01 19:45:34;;;;;;;;;;;12.80;99.90;;;;;;8392369;28;19928;-72
2022/01/01 19:49:38;;;;;;;;;;;12.80;99.90;;;;;;8397314;28;19932;-71
2022/01/01 19:53:40;;;;;;;;;;;12.80;99.90;;;;;;8398866;28;19931;-72
2022/01/01 19:57:41;;;;;;;;;;;12.70;99.90;;;;;;8373291;28;19971;-72
2022/01/01 20:01:43;;;;;;;;;;;12.70;99.90;;;;;;8370210;28;19958;-72
2022/01/01 20:05:45;;;;;;;;;;;12.70;99.90;;;;;;8371428;28;19920;-72
2022/01/01 20:09:47;;;;;;;;;;;12.60;99.90;;;;;;8371794;28;20399;-71
2022/01/01 20:13:48;;;;;;;;;;;12.60;99.90;;;;;;8373156;28;19920;-72
2022/01/01 20:17:51;;;;;;;;;;;12.50;99.90;;;;;;8372114;28;20010;-72
2022/01/01 20:21:56;;;;;;;;;;;12.50;99.90;;;;;;8383408;28;19966;-72
2022/01/01 20:25:57;;;;;;;;;;;12.60;99.90;;;;;;8391614;28;19932;-71
2022/01/01 20:29:59;;;;;;;;;;;12.60;99.90;;;;;;8386314;28;19920;-71
2022/01/01 20:34:01;;;;;;;;;;;12.60;99.90;;;;;;8384929;28;19920;-71
2022/01/01 20:38:02;;;;;;;;;;;12.60;99.90;;;;;;8389643;28;19921;-71
2022/01/01 20:42:04;;;;;;;;;;;12.60;99.90;;;;;;8393117;28;19924;-71
2022/01/01 20:46:06;;;;;;;;;;;12.70;99.90;;;;;;8393257;28;20335;-71
2022/01/01 20:50:08;;;;;;;;;;;12.70;99.90;;;;;;8374601;28;19924;-72
2022/01/01 20:54:10;;;;;;;;;;;12.70;99.90;;;;;;8388114;28;20317;-71
2022/01/01 20:58:11;;;;;;;;;;;12.70;99.90;;;;;;8392054;28;20066;-72
2022/01/01 21:02:20;;;;;;;;;;;12.80;99.90;;;;;;8388279;28;20280;-71
2022/01/01 21:06:25;;;;;;;;;;;12.80;99.90;;;;;;8387070;28;19931;-71
2022/01/01 21:10:28;;;;;;;;;;;12.80;99.90;;;;;;8388231;28;20368;-71
2022/01/01 21:14:31;;;;;;;;;;;12.80;99.90;;;;;;8389828;28;19928;-72
2022/01/01 21:18:33;;;;;;;;;;;12.80;99.90;;;;;;8389655;28;19970;-71
2022/01/01 21:22:34;;;;;;;;;;;12.80;99.90;;;;;;8388338;28;19920;-71
2022/01/01 21:26:36;;;;;;;;;;;12.70;99.90;;;;;;8385691;28;19963;-71
2022/01/01 21:30:38;;;;;;;;;;;12.70;99.90;;;;;;8388535;28;19935;-72
2022/01/01 21:34:44;;;;;;;;;;;12.70;99.90;;;;;;8370369;28;19947;-71
2022/01/01 21:38:46;;;;;;;;;;;12.70;99.90;;;;;;8393443;28;20369;-71
2022/01/01 21:42:47;;;;;;;;;;;12.60;99.90;;;;;;8391419;28;19999;-71
2022/01/01 21:46:51;;;;;;;;;;;12.60;99.90;;;;;;8385572;28;21313;-71
2022/01/01 21:50:52;;;;;;;;;;;12.60;99.90;;;;;;8386890;28;19924;-71
2022/01/01 21:54:57;;;;;;;;;;;12.60;99.90;;;;;;8367732;28;19971;-71
2022/01/01 21:58:58;;;;;;;;;;;12.60;99.90;;;;;;8380362;28;19932;-72
2022/01/01 22:03:00;;;;;;;;;;;12.60;99.90;;;;;;8394134;28;20286;-71
2022/01/01 22:07:02;;;;;;;;;;;12.60;99.90;;;;;;8412026;28;20371;-71
2022/01/01 22:11:03;;;;;;;;;;;12.60;99.90;;;;;;8416403;28;19937;-71
2022/01/01 22:15:05;;;;;;;;;;;12.60;99.90;;;;;;8398630;28;19959;-71
2022/01/01 22:19:08;;;;;;;;;;;12.60;99.90;;;;;;8419530;28;19935;-71
2022/01/01 22:23:11;;;;;;;;;;;12.50;99.90;;;;;;8417637;28;19979;-72
2022/01/01 22:27:12;;;;;;;;;;;12.50;99.90;;;;;;8408558;28;19950;-71
2022/01/01 22:31:14;;;;;;;;;;;12.50;99.90;;;;;;8406739;28;19924;-71
2022/01/01 22:35:16;;;;;;;;;;;12.50;99.90;;;;;;8417835;28;20294;-71
2022/01/01 22:39:17;;;;;;;;;;;12.50;99.90;;;;;;8420172;28;19931;-72
2022/01/01 22:43:19;;;;;;;;;;;12.50;99.90;;;;;;8399239;28;20287;-71
2022/01/01 22:47:20;;;;;;;;;;;12.50;99.90;;;;;;8396539;28;20390;-71
2022/01/01 22:51:22;;;;;;;;;;;12.60;99.90;;;;;;8422678;28;19935;-71
2022/01/01 22:55:24;;;;;;;;;;;12.60;99.90;;;;;;8420154;28;20000;-71
2022/01/01 22:59:25;;;;;;;;;;;12.60;99.90;;;;;;8420719;28;20395;-71
2022/01/01 23:03:27;;;;;;;;;;;12.60;99.90;;;;;;8396082;28;20325;-71
2022/01/01 23:07:29;;;;;;;;;;;12.50;99.90;;;;;;8411434;28;19924;-71
2022/01/01 23:11:30;;;;;;;;;;;12.50;99.90;;;;;;8423529;28;19928;-71
2022/01/01 23:15:36;;;;;;;;;;;12.50;99.90;;;;;;8419585;28;19924;-72
2022/01/01 23:19:38;;;;;;;;;;;12.50;99.90;;;;;;8428099;28;19924;-71
2022/01/01 23:23:42;;;;;;;;;;;12.50;99.90;;;;;;8414286;28;20375;-72
2022/01/01 23:27:45;;;;;;;;;;;12.40;99.90;;;;;;8420581;28;19932;-72
2022/01/01 23:31:48;;;;;;;;;;;12.40;99.90;;;;;;8400214;28;20282;-71
2022/01/01 23:35:51;;;;;;;;;;;12.40;99.90;;;;;;8425084;28;19987;-72
2022/01/01 23:39:53;;;;;;;;;;;12.30;99.90;;;;;;8411816;28;20334;-71
2022/01/01 23:43:59;;;;;;;;;;;12.30;99.90;;;;;;8418843;28;22018;-71
2022/01/01 23:48:00;;;;;;;;;;;12.20;99.90;;;;;;8424958;28;19936;-72